createdAt,value
2022-09-14T00:01:34.603Z,1.73
2022-09-14T00:04:06.105Z,1.95
2022-09-14T00:06:33.613Z,1.73
2022-09-14T00:09:01.432Z,2.08
2022-09-14T00:11:32.101Z,2.10
2022-09-14T00:14:00.949Z,2.10
2022-09-14T00:16:31.516Z,1.90
2022-09-14T00:19:06.118Z,1.80
2022-09-14T00:21:38.782Z,2.35
2022-09-14T00:24:09.999Z,2.20
2022-09-14T00:26:38.025Z,2.60
2022-09-14T00:29:05.982Z,1.75
2022-09-14T00:31:37.107Z,2.20
2022-09-14T00:34:07.915Z,1.83
2022-09-14T00:36:40.430Z,1.77
2022-09-14T00:39:08.830Z,1.70
2022-09-14T00:41:39.236Z,2.15
2022-09-14T00:44:26.807Z,1.50
2022-09-14T00:47:00.592Z,1.70
2022-09-14T00:49:32.950Z,1.62
2022-09-14T00:52:34.116Z,1.67
2022-09-14T00:55:08.608Z,1.55
2022-09-14T00:57:41.803Z,2.00
2022-09-14T01:00:11.534Z,2.10
2022-09-14T01:02:39.444Z,1.92
2022-09-14T01:05:08.964Z,2.75
2022-09-14T01:07:53.785Z,2.50
2022-09-14T01:10:34.565Z,2.30
2022-09-14T01:13:19.969Z,2.30
2022-09-14T01:16:02.604Z,2.28
2022-09-14T01:18:37.957Z,2.03
2022-09-14T01:21:21.488Z,1.73
2022-09-14T01:24:07.369Z,2.27
2022-09-14T01:26:54.025Z,1.80
2022-09-14T01:29:49.511Z,1.90
2022-09-14T01:32:31.295Z,2.20
2022-09-14T01:35:15.793Z,1.90
2022-09-14T01:37:51.944Z,1.87
2022-09-14T01:40:46.402Z,1.90
2022-09-14T01:43:19.954Z,1.87
2022-09-14T01:45:54.518Z,1.95
2022-09-14T01:48:37.176Z,2.15
2022-09-14T01:51:10.503Z,2.10
2022-09-14T01:54:05.389Z,2.70
2022-09-14T01:56:39.031Z,2.47
2022-09-14T01:59:21.132Z,2.28
2022-09-14T02:02:02.816Z,1.95
2022-09-14T02:05:13.449Z,2.20
2022-09-14T02:07:41.059Z,2.58
2022-09-14T02:10:12.421Z,2.10
2022-09-14T02:12:40.901Z,2.40
2022-09-14T02:15:11.231Z,2.33
2022-09-14T02:17:39.488Z,2.60
2022-09-14T02:20:13.580Z,2.40
2022-09-14T02:22:41.593Z,2.10
2022-09-14T02:25:09.201Z,2.50
2022-09-14T02:27:36.623Z,1.62
2022-09-14T02:30:04.852Z,1.80
2022-09-14T02:32:32.187Z,2.50
2022-09-14T02:35:36.292Z,2.62
2022-09-14T02:38:16.167Z,2.42
2022-09-14T02:41:03.090Z,2.53
2022-09-14T02:43:33.720Z,2.53
2022-09-14T02:46:23.487Z,2.58
2022-09-14T02:48:54.236Z,2.62
2022-09-14T02:51:31.393Z,2.35
2022-09-14T02:54:25.439Z,2.47
2022-09-14T02:56:52.900Z,2.40
2022-09-14T02:59:20.677Z,2.60
2022-09-14T03:01:48.122Z,2.55
2022-09-14T03:04:15.677Z,2.53
2022-09-14T03:06:43.449Z,2.60
2022-09-14T03:09:10.858Z,2.77
2022-09-14T03:11:38.359Z,2.33
2022-09-14T03:14:06.097Z,2.53
2022-09-14T03:16:33.523Z,2.37
2022-09-14T03:19:00.979Z,2.87
2022-09-14T03:21:28.710Z,2.40
2022-09-14T03:23:57.873Z,2.72
2022-09-14T03:26:27.515Z,2.65
2022-09-14T03:28:57.976Z,3.08
2022-09-14T03:31:26.602Z,2.70
2022-09-14T03:33:56.817Z,3.30
2022-09-14T03:36:26.650Z,2.90
2022-09-14T03:38:55.777Z,2.92
2022-09-14T03:41:24.494Z,2.97
2022-09-14T03:43:52.581Z,2.50
2022-09-14T03:46:22.583Z,2.30
2022-09-14T03:48:50.724Z,2.53
2022-09-14T03:51:18.704Z,2.72
2022-09-14T03:53:46.555Z,3.03
2022-09-14T03:56:19.498Z,3.00
2022-09-14T03:58:48.696Z,2.13
2022-09-14T04:01:18.553Z,2.80
2022-09-14T04:03:47.177Z,2.58
2022-09-14T04:06:16.109Z,2.47
2022-09-14T04:08:44.982Z,2.35
2022-09-14T04:11:21.764Z,2.50
2022-09-14T04:13:50.159Z,2.70
2022-09-14T04:16:20.856Z,2.80
2022-09-14T04:18:49.133Z,2.95
2022-09-14T04:21:19.664Z,2.60
2022-09-14T04:24:14.731Z,3.10
2022-09-14T04:26:35.694Z,3.05
2022-09-14T04:29:04.334Z,2.87
2022-09-14T04:31:32.417Z,2.65
2022-09-14T04:33:59.893Z,3.00
2022-09-14T04:36:31.001Z,3.23
2022-09-14T04:39:00.922Z,3.15
2022-09-14T04:41:30.597Z,3.35
2022-09-14T04:43:59.247Z,2.60
2022-09-14T04:46:32.268Z,2.80
2022-09-14T04:49:00.022Z,2.90
2022-09-14T04:51:29.877Z,2.50
2022-09-14T04:53:59.311Z,2.45
2022-09-14T04:56:28.777Z,3.00
2022-09-14T04:58:58.892Z,3.40
2022-09-14T05:01:30.652Z,2.63
2022-09-14T05:03:58.895Z,3.33
2022-09-14T05:06:28.980Z,2.83
2022-09-14T05:08:57.407Z,2.60
2022-09-14T05:11:30.655Z,3.42
2022-09-14T05:14:00.005Z,2.80
2022-09-14T05:16:36.144Z,2.83
2022-09-14T05:19:06.804Z,3.10
2022-09-14T05:21:36.360Z,2.70
2022-09-14T05:24:08.462Z,3.15
2022-09-14T05:26:35.856Z,2.60
2022-09-14T05:29:03.755Z,3.20
2022-09-14T05:31:32.482Z,3.03
2022-09-14T05:34:00.274Z,2.60
2022-09-14T05:36:27.666Z,2.40
2022-09-14T05:38:55.391Z,2.50
2022-09-14T05:41:22.773Z,2.67
2022-09-14T05:43:50.164Z,2.75
2022-09-14T05:46:22.341Z,2.70
2022-09-14T05:48:51.884Z,2.42
2022-09-14T05:51:22.770Z,2.37
2022-09-14T05:53:52.642Z,2.47
2022-09-14T05:56:21.854Z,2.30
2022-09-14T05:58:49.798Z,2.35
2022-09-14T06:01:26.227Z,2.40
2022-09-14T06:03:55.567Z,2.30
2022-09-14T06:06:23.711Z,2.08
2022-09-14T06:08:56.354Z,1.73
2022-09-14T06:11:28.609Z,1.75
2022-09-14T06:13:57.275Z,1.80
2022-09-14T06:16:26.411Z,1.50
2022-09-14T06:18:55.838Z,1.60
2022-09-14T06:21:23.509Z,1.73
2022-09-14T06:23:52.023Z,1.90
2022-09-14T06:26:19.898Z,1.73
2022-09-14T06:28:47.576Z,1.43
2022-09-14T06:31:17.762Z,1.60
2022-09-14T06:33:46.213Z,1.80
2022-09-14T06:36:19.756Z,1.65
2022-09-14T06:38:51.756Z,1.58
2022-09-14T06:41:22.335Z,1.90
2022-09-14T06:43:50.642Z,1.92
2022-09-14T06:46:20.826Z,1.60
2022-09-14T06:48:51.122Z,1.83
2022-09-14T06:51:20.353Z,1.75
2022-09-14T06:53:49.642Z,1.40
2022-09-14T06:56:18.191Z,1.45
2022-09-14T06:58:46.420Z,1.50
2022-09-14T07:01:15.799Z,1.70
2022-09-14T07:03:44.719Z,1.70
2022-09-14T07:06:17.750Z,1.70
2022-09-14T07:08:45.400Z,1.77
2022-09-14T07:11:14.697Z,1.55
2022-09-14T07:13:42.126Z,2.20
2022-09-14T07:16:09.640Z,1.70
2022-09-14T07:18:37.608Z,2.10
2022-09-14T07:21:08.081Z,1.75
2022-09-14T07:23:37.821Z,2.70
2022-09-14T07:26:11.824Z,2.33
2022-09-14T07:28:40.437Z,1.80
2022-09-14T07:31:25.073Z,1.90
2022-09-14T07:33:55.089Z,1.77
2022-09-14T07:36:24.996Z,1.92
2022-09-14T07:38:53.634Z,2.30
2022-09-14T07:41:22.723Z,1.92
2022-09-14T07:43:51.904Z,1.83
2022-09-14T07:46:20.484Z,1.90
2022-09-14T07:48:49.154Z,2.15
2022-09-14T07:51:16.955Z,2.17
2022-09-14T07:53:44.410Z,1.83
2022-09-14T07:56:13.587Z,2.17
2022-09-14T07:58:42.114Z,2.15
2022-09-14T08:01:12.688Z,2.25
2022-09-14T08:03:42.323Z,2.50
2022-09-14T08:06:13.147Z,2.00
2022-09-14T08:08:42.927Z,2.17
2022-09-14T08:11:16.243Z,2.10
2022-09-14T08:13:46.427Z,1.73
2022-09-14T08:16:13.918Z,1.90
2022-09-14T08:18:41.591Z,2.20
2022-09-14T08:21:11.250Z,2.43
2022-09-14T08:23:39.335Z,2.40
2022-09-14T08:26:14.425Z,2.25
2022-09-14T08:28:42.452Z,2.35
2022-09-14T08:31:13.758Z,2.10
2022-09-14T08:33:46.896Z,2.20
2022-09-14T08:36:17.323Z,2.42
2022-09-14T08:38:44.579Z,2.15
2022-09-14T08:41:18.227Z,2.40
2022-09-14T08:43:45.835Z,2.65
2022-09-14T08:46:30.423Z,2.87
2022-09-14T08:49:00.364Z,2.50
2022-09-14T08:51:28.304Z,2.45
2022-09-14T08:53:59.488Z,2.42
2022-09-14T08:56:33.723Z,2.90
2022-09-14T08:59:15.201Z,2.90
2022-09-14T09:01:48.623Z,2.80
2022-09-14T09:04:53.464Z,3.17
2022-09-14T09:07:32.610Z,2.55
2022-09-14T09:10:00.095Z,2.58
2022-09-14T09:12:36.216Z,2.70
2022-09-14T09:15:15.323Z,2.10
2022-09-14T09:17:47.200Z,2.40
2022-09-14T09:20:23.597Z,3.00
2022-09-14T09:23:01.360Z,2.90
2022-09-14T09:25:46.111Z,2.40
2022-09-14T09:28:15.133Z,2.70
2022-09-14T09:30:45.082Z,2.80
2022-09-14T09:33:17.547Z,2.70
2022-09-14T09:35:45.390Z,3.08
2022-09-14T09:38:17.408Z,2.60
2022-09-14T09:40:56.460Z,3.00
2022-09-14T09:43:38.930Z,2.90
2022-09-14T09:46:12.530Z,2.83
2022-09-14T09:48:45.236Z,2.78
2022-09-14T09:51:13.943Z,2.63
2022-09-14T09:53:57.106Z,3.10
2022-09-14T09:56:28.282Z,2.90
2022-09-14T09:58:56.059Z,2.67
2022-09-14T10:01:33.709Z,2.53
2022-09-14T10:04:16.842Z,3.00
2022-09-14T10:06:49.580Z,3.10
2022-09-14T10:09:28.302Z,3.10
2022-09-14T10:12:04.443Z,2.92
2022-09-14T10:14:34.989Z,2.90
2022-09-14T10:17:16.140Z,2.70
2022-09-14T10:19:52.353Z,2.70
2022-09-14T10:22:33.123Z,2.65
2022-09-14T10:25:22.254Z,3.25
2022-09-14T10:27:59.481Z,2.87
2022-09-14T10:30:34.605Z,2.60
2022-09-14T10:33:04.163Z,2.92
2022-09-14T10:36:07.285Z,2.60
2022-09-14T10:39:01.263Z,2.87
2022-09-14T10:41:34.239Z,3.10
2022-09-14T10:44:35.707Z,2.47
2022-09-14T10:47:25.090Z,3.15
2022-09-14T10:50:07.550Z,2.75
2022-09-14T10:52:41.391Z,3.47
2022-09-14T10:55:31.818Z,3.10
2022-09-14T10:58:21.222Z,2.70
2022-09-14T11:01:16.363Z,2.78
2022-09-14T11:03:59.349Z,2.75
2022-09-14T11:07:17.578Z,2.45
2022-09-14T11:09:51.960Z,2.33
2022-09-14T11:13:00.587Z,2.60
2022-09-14T11:15:45.891Z,2.97
2022-09-14T11:18:38.608Z,2.45
2022-09-14T11:21:45.076Z,2.60
2022-09-14T11:24:26.016Z,2.45
2022-09-14T11:27:05.213Z,3.17
2022-09-14T11:29:44.566Z,2.47
2022-09-14T11:32:21.722Z,2.80
2022-09-14T11:34:58.181Z,2.67
2022-09-14T11:37:56.588Z,2.70
2022-09-14T11:40:30.865Z,2.70
2022-09-14T11:43:13.288Z,2.55
2022-09-14T11:45:48.341Z,2.90
2022-09-14T11:48:42.422Z,2.80
2022-09-14T11:51:17.366Z,3.28
2022-09-14T11:53:46.570Z,2.47
2022-09-14T11:56:34.011Z,2.70
2022-09-14T11:59:06.625Z,2.60
2022-09-14T12:01:39.211Z,2.95
2022-09-14T12:04:15.139Z,2.75
2022-09-14T12:06:51.506Z,2.83
2022-09-14T12:09:21.078Z,3.42
2022-09-14T12:11:54.169Z,3.10
2022-09-14T12:14:24.540Z,3.17
2022-09-14T12:17:41.158Z,2.90
2022-09-14T12:20:27.571Z,3.43
2022-09-14T12:23:27.717Z,3.00
2022-09-14T12:25:58.285Z,2.70
2022-09-14T12:28:34.868Z,2.85
2022-09-14T12:31:05.182Z,2.85
2022-09-14T12:33:32.887Z,3.43
2022-09-14T12:36:07.238Z,3.40
2022-09-14T12:38:37.961Z,3.08
2022-09-14T12:41:11.118Z,3.37
2022-09-14T12:43:41.908Z,3.30
2022-09-14T12:46:21.619Z,2.97
2022-09-14T12:48:49.576Z,2.72
2022-09-14T12:51:31.191Z,2.70
2022-09-14T12:53:59.127Z,2.50
2022-09-14T12:56:45.175Z,2.65
2022-09-14T12:59:18.635Z,2.73
2022-09-14T13:02:15.854Z,2.90
2022-09-14T13:04:45.818Z,3.08
2022-09-14T13:07:16.248Z,2.60
2022-09-14T13:09:50.654Z,2.55
2022-09-14T13:12:31.762Z,2.80
2022-09-14T13:15:03.220Z,2.85
2022-09-14T13:17:30.707Z,2.80
2022-09-14T13:20:01.009Z,2.95
2022-09-14T13:22:31.790Z,2.60
2022-09-14T13:25:01.601Z,2.50
2022-09-14T13:27:38.489Z,2.72
2022-09-14T13:30:12.079Z,2.62
2022-09-14T13:32:43.201Z,2.58
2022-09-14T13:35:29.632Z,2.40
2022-09-14T13:37:59.384Z,2.80
2022-09-14T13:40:29.986Z,2.35
2022-09-14T13:42:59.357Z,2.75
2022-09-14T13:45:27.226Z,2.70
2022-09-14T13:47:54.890Z,3.00
2022-09-14T13:50:25.478Z,2.97
2022-09-14T13:53:03.136Z,2.90
2022-09-14T13:55:32.103Z,2.50
2022-09-14T13:58:12.205Z,2.60
2022-09-14T14:01:03.646Z,2.30
2022-09-14T14:03:31.496Z,2.40
2022-09-14T14:05:59.876Z,3.03
2022-09-14T14:08:27.257Z,2.30
2022-09-14T14:10:55.643Z,2.60
2022-09-14T14:13:38.336Z,2.47
2022-09-14T14:16:24.471Z,2.50
2022-09-14T14:18:57.391Z,2.42
2022-09-14T14:21:31.432Z,2.95
2022-09-14T14:24:27.941Z,2.90
2022-09-14T14:26:57.563Z,2.70
2022-09-14T14:29:25.782Z,2.40
2022-09-14T14:31:55.941Z,2.95
2022-09-14T14:34:27.252Z,2.80
2022-09-14T14:36:56.061Z,2.28
2022-09-14T14:39:25.487Z,2.30
2022-09-14T14:41:53.708Z,2.50
2022-09-14T14:44:24.848Z,2.67
2022-09-14T14:46:52.619Z,2.42
2022-09-14T14:49:23.827Z,2.47
2022-09-14T14:51:51.274Z,2.50
2022-09-14T14:54:19.283Z,2.40
2022-09-14T14:56:48.927Z,2.83
2022-09-14T14:59:25.559Z,2.50
2022-09-14T15:01:54.075Z,2.45
2022-09-14T15:04:21.914Z,2.25
2022-09-14T15:21:47.508Z,3.00
2022-09-14T15:24:15.280Z,3.87
2022-09-14T15:26:42.731Z,2.72
2022-09-14T15:29:13.634Z,3.40
2022-09-14T15:31:41.417Z,3.17
2022-09-14T15:34:08.892Z,3.47
2022-09-14T15:36:38.983Z,2.83
2022-09-14T15:39:09.517Z,2.95
2022-09-14T15:41:36.979Z,2.42
2022-09-14T15:44:04.809Z,3.20
2022-09-14T15:46:32.475Z,3.30
2022-09-14T15:49:05.116Z,2.78
2022-09-14T15:51:33.763Z,3.08
2022-09-14T15:54:02.231Z,2.75
2022-09-14T15:56:30.428Z,2.78
2022-09-14T15:58:59.991Z,2.90
2022-09-14T16:01:29.206Z,3.30
2022-09-14T16:04:02.749Z,3.03
2022-09-14T16:06:31.016Z,2.47
2022-09-14T16:09:02.047Z,2.53
2022-09-14T16:11:29.453Z,2.60
2022-09-14T16:13:56.970Z,3.03
2022-09-14T16:16:25.113Z,2.90
2022-09-14T16:18:52.955Z,2.37
2022-09-14T16:21:23.880Z,2.10
2022-09-14T16:23:54.644Z,2.47
2022-09-14T16:26:25.428Z,2.35
2022-09-14T16:28:54.516Z,2.42
2022-09-14T16:31:24.931Z,2.85
2022-09-14T16:33:55.389Z,2.78
2022-09-14T16:36:27.892Z,2.93
2022-09-14T16:38:57.595Z,2.70
2022-09-14T16:41:25.722Z,2.67
2022-09-14T16:43:56.167Z,2.55
2022-09-14T16:46:25.169Z,3.00
2022-09-14T16:48:52.850Z,2.50
2022-09-14T16:51:23.306Z,2.55
2022-09-14T16:53:52.280Z,2.50
2022-09-14T16:56:25.276Z,2.20
2022-09-14T16:58:55.178Z,2.15
2022-09-14T17:01:37.062Z,2.20
2022-09-14T17:04:11.581Z,2.62
2022-09-14T17:06:41.525Z,2.60
2022-09-14T17:09:12.713Z,2.30
2022-09-14T17:11:41.297Z,2.70
2022-09-14T17:14:17.115Z,2.30
2022-09-14T17:16:45.013Z,2.25
2022-09-14T17:19:13.672Z,2.72
2022-09-14T17:21:42.963Z,2.80
2022-09-14T17:24:11.512Z,2.45
2022-09-14T17:26:39.266Z,2.40
2022-09-14T17:29:07.084Z,1.92
2022-09-14T17:31:37.060Z,2.40
2022-09-14T17:34:07.412Z,2.40
2022-09-14T17:36:35.254Z,2.03
2022-09-14T17:39:09.205Z,1.83
2022-09-14T17:41:40.018Z,1.98
2022-09-14T17:44:11.141Z,2.08
2022-09-14T17:46:47.137Z,2.53
2022-09-14T17:49:18.520Z,2.00
2022-09-14T17:51:46.699Z,1.70
2022-09-14T17:54:14.106Z,2.03
2022-09-14T17:56:41.607Z,2.00
2022-09-14T17:59:15.380Z,1.90
2022-09-14T18:01:42.791Z,2.20
2022-09-14T18:04:13.088Z,1.87
2022-09-14T18:06:44.232Z,1.75
2022-09-14T18:09:18.467Z,2.45
2022-09-14T18:11:47.911Z,1.90
2022-09-14T18:14:16.888Z,2.42
2022-09-14T18:16:45.754Z,2.80
2022-09-14T18:19:15.063Z,2.30
2022-09-14T18:21:52.163Z,1.98
2022-09-14T18:24:21.395Z,2.40
2022-09-14T18:26:50.466Z,2.80
2022-09-14T18:29:21.245Z,2.07
2022-09-14T18:31:51.330Z,2.30
2022-09-14T18:34:20.461Z,2.45
2022-09-14T18:36:48.152Z,1.98
2022-09-14T18:39:16.086Z,2.40
2022-09-14T18:41:44.295Z,2.47
2022-09-14T18:44:11.732Z,2.37
2022-09-14T18:46:39.688Z,2.10
2022-09-14T18:49:07.113Z,1.98
2022-09-14T18:51:34.547Z,2.15
2022-09-14T18:54:05.691Z,2.47
2022-09-14T18:56:34.813Z,2.03
2022-09-14T18:59:04.133Z,2.17
2022-09-14T19:01:33.620Z,2.50
2022-09-14T19:04:06.626Z,2.90
2022-09-14T19:06:36.344Z,2.10
2022-09-14T19:09:05.470Z,2.00
2022-09-14T19:11:35.186Z,2.30
2022-09-14T19:14:09.371Z,2.72
2022-09-14T19:16:40.715Z,2.08
2022-09-14T19:19:14.737Z,2.97
2022-09-14T19:21:43.193Z,2.70
2022-09-14T19:24:14.512Z,2.30
2022-09-14T19:26:50.435Z,2.60
2022-09-14T19:29:21.612Z,2.55
2022-09-14T19:31:51.676Z,2.47
2022-09-14T19:34:21.192Z,2.03
2022-09-14T19:36:48.896Z,2.47
2022-09-14T19:39:16.738Z,1.90
2022-09-14T19:41:44.491Z,2.30
2022-09-14T19:44:12.874Z,2.43
2022-09-14T19:46:40.542Z,2.70
2022-09-14T19:49:14.874Z,3.03
2022-09-14T19:51:43.204Z,2.30
2022-09-14T19:54:11.479Z,2.12
2022-09-14T19:56:40.603Z,2.30
2022-09-14T19:59:08.493Z,2.20
2022-09-14T20:01:38.253Z,2.33
2022-09-14T20:04:07.636Z,2.50
2022-09-14T20:06:40.685Z,2.37
2022-09-14T20:09:17.962Z,2.73
2022-09-14T20:11:47.586Z,2.50
2022-09-14T20:14:18.162Z,2.42
2022-09-14T20:16:46.982Z,2.62
2022-09-14T20:19:16.951Z,2.25
2022-09-14T20:21:45.648Z,2.20
2022-09-14T20:24:19.286Z,2.33
2022-09-14T20:26:49.069Z,2.40
2022-09-14T20:29:18.121Z,1.90
2022-09-14T20:31:46.474Z,2.60
2022-09-14T20:34:16.451Z,2.00
2022-09-14T20:36:44.215Z,2.25
2022-09-14T20:39:11.748Z,2.12
2022-09-14T20:41:39.840Z,2.50
2022-09-14T20:44:07.743Z,2.70
2022-09-14T20:46:39.187Z,2.70
2022-09-14T20:49:11.418Z,2.53
2022-09-14T20:51:39.788Z,2.50
2022-09-14T20:54:09.956Z,2.03
2022-09-14T20:56:37.390Z,2.70
2022-09-14T20:59:07.300Z,2.40
2022-09-14T21:01:36.845Z,2.37
2022-09-14T21:04:08.156Z,2.72
2022-09-14T21:06:38.361Z,2.10
2022-09-14T21:09:07.227Z,1.90
2022-09-14T21:11:35.350Z,2.47
2022-09-14T21:14:03.668Z,2.15
2022-09-14T21:16:43.731Z,2.37
2022-09-14T21:19:23.654Z,2.40
2022-09-14T21:21:51.902Z,2.33
2022-09-14T21:24:21.424Z,2.23
2022-09-14T21:26:49.247Z,2.05
2022-09-14T21:29:20.876Z,1.98
2022-09-14T21:31:48.885Z,2.40
2022-09-14T21:34:16.735Z,2.47
2022-09-14T21:36:48.320Z,2.63
2022-09-14T21:39:19.404Z,2.15
2022-09-14T21:41:49.031Z,2.28
2022-09-14T21:44:17.214Z,2.00
2022-09-14T21:46:44.668Z,2.17
2022-09-14T21:49:18.105Z,2.70
2022-09-14T21:51:46.922Z,2.20
2022-09-14T21:54:15.114Z,2.20
2022-09-14T21:56:44.556Z,2.28
2022-09-14T21:59:15.128Z,2.10
2022-09-14T22:01:43.186Z,2.60
2022-09-14T22:04:15.631Z,2.50
2022-09-14T22:06:45.171Z,2.25
2022-09-14T22:09:17.347Z,2.30
2022-09-14T22:11:45.117Z,2.17
2022-09-14T22:25:15.685Z,2.10
2022-09-14T22:27:43.375Z,2.00
2022-09-14T22:30:11.267Z,2.43
2022-09-14T22:32:38.652Z,2.05
2022-09-14T22:35:06.752Z,2.15
2022-09-14T22:37:34.122Z,2.40
2022-09-14T22:40:01.916Z,2.65
2022-09-14T22:42:31.516Z,2.20
2022-09-14T22:44:58.919Z,2.53
2022-09-14T22:47:26.297Z,2.10
2022-09-14T22:49:53.961Z,2.25
2022-09-14T22:52:21.396Z,1.95
2022-09-14T22:54:48.796Z,2.13
2022-09-14T22:57:16.749Z,2.20
2022-09-14T22:59:44.126Z,2.50
2022-09-14T23:02:11.558Z,2.20
2022-09-14T23:04:39.295Z,1.80
2022-09-14T23:07:08.278Z,2.00
2022-09-14T23:09:35.700Z,1.73
2022-09-14T23:12:03.618Z,1.90
2022-09-14T23:14:31.981Z,2.72
2022-09-14T23:16:59.572Z,1.70
2022-09-14T23:19:27.456Z,2.23
2022-09-14T23:21:54.791Z,2.00
2022-09-14T23:24:22.234Z,1.85
2022-09-14T23:26:49.933Z,1.75
2022-09-14T23:29:17.496Z,2.03
2022-09-14T23:31:45.452Z,1.70
2022-09-14T23:34:14.012Z,1.75
2022-09-14T23:36:41.524Z,1.67
2022-09-14T23:39:09.204Z,1.98
2022-09-14T23:41:37.112Z,1.77
2022-09-14T23:44:04.773Z,1.90
2022-09-14T23:46:32.218Z,1.65
2022-09-14T23:48:59.972Z,1.90
2022-09-14T23:51:27.393Z,2.10
2022-09-14T23:53:54.797Z,1.83
2022-09-14T23:56:22.693Z,1.60
2022-09-14T23:58:50.281Z,1.90
